Shelby, Montana
Current Conditions -  °F | °C
As of 9:56 AM on Thursday 27 Nov 2014 (Local Time) from KCTB Reporting Station
Clear Clear  
Wind Chill: 34°   Ceiling: Unl
Heat Index: 45°   Visibility: 10mi
Dew Point: 34°   Wind: 37mph
Humidity: 65%   Direction: 260°W
Pressure: 29.69"   Gusts: 49mph
Location:  48.51°N, 111.86°W
Report Text: KCTB 271656Z AUTO 26032G43KT 10SM CLR 07/01 A2969 RMK AO2 PK WND 25043/1652 SLP073 T00720011 $
Loading
Personal Weather Stations






























Interactive Weather Map New forecast layout! Learn more

10-Day Weather Forecast

Advertisements
Track Severe Weather on mobile